Logo AVAMET
Benvolgut visitant, si us plau, ingressa Recuperar contrasenya
AVAMET paisatges

Eslida

Dades diàries. Acumulats / Últims 30 dies disponibles

Data Temperatura (°C) Humitat rel. (%) Pressió rel. (hPa) Vent (km/h) Precipitació
Mínima Mitjana Màxima Amplitud
tèrmica
Mínima Mitjana Màxima Mínima Mitjana Màxima Predom. Mitjana Ràfega
màxima
Total
(mm)
Índex-n
Mínima Mitjana Màxima Mínima Mitjana Màxima n
0 a 1
P0 max
mm 5'
Dades mensuals acumulades fins l'últim dia disponible
10/2020 4,1 10,6 13,8 16,1 17,2 22,8 29,2 25,1 22 54 95 992 1.016 1.025   5,3 53,1 7,8
Dades anuals acumulades fins l'últim dia disponible
2020 -0,1 11,6 20,7 16,9 7,3 23,0 34,6 34,7 6 65 97 992 1.019 1.035   4,5 70,8 546,2
Últims 30 dies disponibles
18-10-2020 8,1     13,9     21,3 13,2 34 62 79 1.021 1.022 1.023 WNW 4,5 17,7 0,0
17-10-2020 6,6     12,3     20,1 13,5 37 65 84 1.017 1.018 1.021 WNW 4,3 22,5 0,0
16-10-2020 4,1     10,8     17,2 13,1 30 50 71 1.017 1.018 1.020 WNW 3,5 22,5 0,0
15-10-2020 9,9     14,4     19,1 9,2 25 37 50 1.014 1.015 1.018 WNW 7,4 43,5 0,0
14-10-2020 12,4     15,8     20,2 7,8 22 49 75 1.009 1.011 1.014 WNW 5,6 30,6 0,0
13-10-2020 9,8     17,2     25,7 15,9 28 54 79 1.012 1.015 1.020 WNW 4,8 35,4 0,0
12-10-2020 10,1     15,5     21,6 11,5 27 43 62 1.019 1.021 1.023 WNW 8,7 46,7 0,0
11-10-2020 12,2     16,3     20,6 8,4 24 45 94 1.020 1.022 1.023 WNW 7,6 46,7 0,0
10-10-2020 13,7     17,6     23,3 9,6 57 82 95 1.021 1.023 1.024 WNW 2,7 16,1 1,2
09-10-2020 13,5     18,7     24,6 11,1 64 77 91 1.021 1.023 1.024 WNW 3,5 17,7 0,0
08-10-2020 13,3     18,9     25,1 11,8 51 67 81 1.022 1.024 1.025 WNW 4,0 22,5 0,0
07-10-2020 13,8     20,9     29,2 15,4 29 50 73 1.020 1.022 1.025 WNW 3,7 17,7 0,0
06-10-2020 9,9     16,3     26,9 17,0 28 51 66 1.020 1.021 1.022 WNW 4,3 20,9 0,0
05-10-2020 10,3     14,9     21,7 11,4 28 50 64 1.013 1.016 1.022 WNW 4,8 29,0 0,0
04-10-2020 8,0     15,0     22,2 14,2 29 48 66 1.006 1.009 1.012 WNW 5,5 35,4 0,0
03-10-2020 11,7     15,9     22,7 11,0 26 39 53 1.000 1.005 1.011 WNW 7,7 46,7 0,0
02-10-2020 11,9     16,8     20,8 8,9 37 51 74 992 997 1.005 WNW 7,7 53,1 6,6 0,72 4,40
01-10-2020 11,5     19,4     28,3 16,8 24 60 84 1.006 1.009 1.014 WNW 4,5 22,5 0,0
30-09-2020 11,8     17,7     25,3 13,5 53 72 84 1.014 1.016 1.019 SO 3,7 20,9 0,0
29-09-2020 11,2     16,8     24,3 13,1 39 61 79 1.018 1.019 1.021 WNW 4,5 19,3 0,0
28-09-2020 8,1     15,6     24,6 16,5 29 50 68 1.015 1.017 1.020 WNW 3,9 19,3 0,0
27-09-2020 13,9     19,2     23,3 9,4 17 37 53 1.007 1.011 1.016 WNW 9,3 46,7 0,0
26-09-2020 13,8     18,3     23,8 10,0 28 39 46 1.010 1.016 1.021 WNW 8,7 37,0 0,0
25-09-2020 12,6     18,4     22,4 9,8 22 41 73 1.012 1.016 1.021 WNW 9,0 46,7 0,0
24-09-2020 15,4     21,4     27,6 12,2 38 57 76 1.011 1.013 1.014 WNW 4,5 30,6 0,0
23-09-2020 15,3     21,1     29,4 14,1 33 63 86 1.011 1.013 1.014 WNW 3,5 24,1 0,0
22-09-2020 15,2     19,7     26,2 11,0 45 72 86 1.013 1.015 1.017 WNW 4,2 22,5 0,0
21-09-2020 15,3     19,9     25,7 10,4 48 68 82 1.015 1.017 1.018 WNW 4,7 25,7 0,0
20-09-2020 14,7     20,8     27,1 12,4 40 60 80 1.015 1.016 1.017 WNW 4,2 25,7 0,0
19-09-2020 15,7     21,6     28,0 12,3 31 62 94 1.013 1.015 1.017 WNW 5,0 33,8 0,2
Últims 13 mesos disponibles
09/2020 8,1 14,8 17,9 20,4 22,4 26,9 31,0 22,9 37 60 75 1.011 1.018 1.024 WNW 4,7 46,7 25,2
08/2020 10,3 18,1 20,7 24,1 23,9 30,5 33,9 23,6 46 62 75 1.005 1.015 1.020 WNW 4,6 35,4 5,4
07/2020 15,9 18,0 20,2 23,9 26,2 29,7 34,6 18,7 41 63 79 1.012 1.017 1.021 WNW 4,8 29,0 2,8
06/2020 9,3 14,5 17,7 20,3 21,2 26,3 31,0 21,7 38 65 86 1.005 1.015 1.022 WNW 4,8 40,2 33,2
05/2020 8,7 12,7 15,3 18,7 16,7 25,0 29,9 21,2 45 64 79 1.005 1.017 1.028 WNW 4,6 35,4 21,0
04/2020 4,8 9,1 14,2 13,5 12,6 18,8 25,1 20,3 43 74 93 1.006 1.017 1.027 WNW 3,4 33,8 99,0
03/2020 2,4 7,4 13,9 11,8 8,3 16,4 24,3 21,9 36 66 90 1.006 1.018 1.028 WNW 4,6 70,8 198,6
02/2020 3,3 6,4 9,8 11,8 12,1 19,2 26,3 23,0 38 66 86 1.013 1.026 1.033 WNW 4,2 40,2 2,8
01/2020 -0,1 4,0 9,3 8,1 7,3 14,6 21,6 21,7 59 74 89 1.019 1.026 1.033 WNW 3,8 53,1 150,4
12/2019 1,8 7,1 16,1 11,1 9,9 16,3 22,4 20,6 42 68 99 1.001 1.019 1.034 WNW 4,6 61,2 154,1
11/2019 0,8 7,8 14,8 13,0 12,8 18,0 26,8 26,0 35 50 69 997 1.010 1.018 WNW 6,3 62,8 3,2
10/2019 6,3 12,5 17,8 17,4 14,6 23,8 32,6 26,3 40 66 87 1.007 1.017 1.023 WNW 4,0 46,7 30,8
09/2019 12,4 16,3 19,7 21,1 19,1 27,0 32,1 19,7 43 70 80 1.010 1.018 1.027 WNW 4,0 40,2 82,8
Tots els anys disponibles
2019 -2,3 10,4 21,5 16,0 9,9 22,3 38,7 41,0 27 62 99 993 1.017 1.035 WNW 4,8 85,3 594,9
Temperatura (°C)
Humitat relativa (%)
Velocitat del vent i ràfega màxima (km/h)
Direcció del vent (°)
Pressió (hPa)
Precipitació (mm)
Nota sobre les dades: s'avisa a l'usuari de la provisionalitat i no oficialitat d'aquestes dades
Logo AVAMET blanc
Web allotjada a Sollutia
Llicència de Creative CommonsLa web d'AVAMET i els seus continguts estan subjectes a una llicència de
Reconeixement - No Comercial - Compartir igual
Últimes estacions: Alfondeguilla (Soci), Santa Magdalena de Polpís (Soci),  Benafigos (Ajuntament Soci), Carlet - Ajuntament (Inforatge), Montroi (Inforatge), Bronchales (Limítrofe-Terol/Aj. Soci), Sueca - Muntanyeta dels Sants (Inforatge), Vilamarxant - Ajuntament (Aj. Soci/Inforatge), Monteagudo del Castillo - El Portero (Limítrofe-Terol/Soci), Calzadilla de los Barros (Limítrofe-Badajoz/Soci) - - -